Aérodrome :
LOGIN :

S'inscrire | Disclaimer

   EN    FR    IT 

 










Légende :    VFR   VFR Marginal   IFR   IFR Intensif   IFR Très Intensif
Visi : 
Plafond : 
>= 8 km
>= 3000ft
5 à 8 km
1000 à 3000 ft
1500m à 5 km
500 à 1000 ft
800 à 1500m
200 à 500 ft
< 800m
< 200 ft
Symboles :   Orages  Brouillard  Fortes neiges  Fortes précipitations  Vent > 20 kt
SIGMETs :   Divers  Orages  Givrage  Turbulence  Onde Orograph.  Cendres Volcan.






- Altitude de l'aérodrome : 76 ft
- Code IATA : KID


ESMK - Kristianstad

DERNIER METAR :
  • 221550Z AUTO 25016KT 220V280 9999 BKN033/// 07/03 Q0996

METARs EXPIRÉS :
  • 221520Z AUTO 25017G28KT 9999 BKN030/// BKN039/// 07/03 Q0996
  • 221450Z AUTO 26016KT 9999 OVC027/// 07/04 Q0996
  • 221420Z AUTO 26018KT 9999 SCT027/// BKN110/// 07/04 Q0995
  • 221350Z AUTO 23016KT 9999 FEW031/// BKN074/// OVC094/// 07/04 Q0995

Prévision TAF périmée.



MET'MAP, la Météo Aéronautique d'un coup d'oeil ! - Copyright ORBIFLY Décembre 2007 - Disclaimer

ORBIFLY MET'MAP TEAM :

Programmation & Développement : Alexandra Zaïnal
Sur une idée originale de : Baudouin d'Aumeries
Assistance à la programmation : Marc-Olivier Méhu
Soutien technique & logistique : Manuel Goepfert

Contact : metmap@orbifly.com




SOURCES & CREDITS :

   NOAA